Time;durP1;ratioP1;P1;durP2;ratioP2;P2;SDS_P1;SDS_P2;PMS_P1;PMS_P2;Temp;Humidity;BMP_temperature;BMP_pressure;BME280_temperature;BME280_humidity;BME280_pressure;Samples;Min_cycle;Max_cycle;Signal;HPM_P1;HPM_P2
2021/08/25 00:00:59;;;;;;;23.27;20.77;;;;;;;9.01;100.00;99635.81;2081533;28;20686;-76
2021/08/25 00:02:00;;;;;;;27.55;20.48;;;;;;;8.98;100.00;99636.34;2080931;28;20235;-76
2021/08/25 00:03:01;;;;;;;25.13;20.50;;;;;;;8.97;100.00;99633.97;2080866;28;20228;-76
2021/08/25 00:04:03;;;;;;;24.35;20.15;;;;;;;8.95;100.00;99628.91;2081491;28;20227;-76
2021/08/25 00:05:06;;;;;;;22.58;20.25;;;;;;;8.94;100.00;99634.50;2081611;28;20234;-77
2021/08/25 00:06:08;;;;;;;21.92;19.92;;;;;;;8.91;100.00;99625.19;2080251;28;20231;-76
2021/08/25 00:07:09;;;;;;;25.27;20.40;;;;;;;8.92;100.00;99631.31;2081131;28;20677;-76
2021/08/25 00:08:11;;;;;;;22.23;20.10;;;;;;;8.89;100.00;99632.66;2081666;28;20610;-77
2021/08/25 00:09:11;;;;;;;25.25;20.50;;;;;;;8.88;100.00;99631.06;2081611;28;21429;-76
2021/08/25 00:10:14;;;;;;;22.90;20.60;;;;;;;8.88;100.00;99631.06;2081849;28;20330;-77
2021/08/25 00:11:15;;;;;;;23.92;20.75;;;;;;;8.87;100.00;99626.81;2081656;28;20280;-76
2021/08/25 00:12:17;;;;;;;23.47;20.93;;;;;;;8.88;100.00;99627.59;2080822;28;20246;-76
2021/08/25 00:13:20;;;;;;;22.80;20.38;;;;;;;8.86;100.00;99624.41;2081208;28;20245;-76
2021/08/25 00:14:20;;;;;;;24.77;20.42;;;;;;;8.88;100.00;99620.41;2080819;28;20258;-76
2021/08/25 00:15:23;;;;;;;24.13;21.52;;;;;;;8.87;100.00;99624.16;2080286;28;20223;-76
2021/08/25 00:16:24;;;;;;;25.08;20.75;;;;;;;8.91;100.00;99627.06;2081024;28;20246;-76
2021/08/25 00:17:26;;;;;;;23.80;21.17;;;;;;;8.85;100.00;99620.94;2081812;28;20234;-76
2021/08/25 00:18:27;;;;;;;23.23;20.75;;;;;;;8.88;100.00;99624.94;2081088;28;20230;-77
2021/08/25 00:19:28;;;;;;;24.88;20.42;;;;;;;8.87;100.00;99626.03;2080585;28;20612;-76
2021/08/25 00:20:30;;;;;;;25.57;20.40;;;;;;;8.83;100.00;99619.63;2081013;28;20215;-77
2021/08/25 00:21:30;;;;;;;26.63;20.52;;;;;;;8.83;100.00;99620.44;2080885;28;20235;-76
2021/08/25 00:22:32;;;;;;;23.70;21.30;;;;;;;8.81;100.00;99616.44;2081788;28;20219;-76
2021/08/25 00:23:33;;;;;;;22.63;20.42;;;;;;;8.80;100.00;99628.16;2082232;28;20231;-77
2021/08/25 00:24:34;;;;;;;26.47;21.10;;;;;;;8.79;100.00;99622.03;2081918;28;20220;-76
2021/08/25 00:25:37;;;;;;;22.02;19.85;;;;;;;8.77;100.00;99624.16;2081419;28;20227;-76
2021/08/25 00:26:38;;;;;;;25.33;19.77;;;;;;;8.75;100.00;99618.31;2080658;28;20303;-76
2021/08/25 00:27:39;;;;;;;23.80;19.97;;;;;;;8.74;100.00;99622.03;2081576;28;20665;-76
2021/08/25 00:28:40;;;;;;;28.15;19.65;;;;;;;8.71;100.00;99612.75;2081203;28;20318;-76
2021/08/25 00:29:42;;;;;;;29.77;20.50;;;;;;;8.71;100.00;99614.63;2081039;28;20234;-77
2021/08/25 00:30:43;;;;;;;22.48;20.10;;;;;;;8.73;100.00;99615.94;2082005;28;20313;-76
2021/08/25 00:31:44;;;;;;;25.13;20.20;;;;;;;8.72;100.00;99613.53;2081783;28;20677;-76
2021/08/25 00:32:45;;;;;;;24.60;20.00;;;;;;;8.73;100.00;99615.94;2081964;28;20568;-76
2021/08/25 00:33:46;;;;;;;22.00;19.70;;;;;;;8.73;100.00;99617.78;2081218;28;20246;-76
2021/08/25 00:34:48;;;;;;;26.90;20.50;;;;;;;8.72;100.00;99614.34;2080912;28;20219;-76
2021/08/25 00:35:48;;;;;;;28.75;21.30;;;;;;;8.71;100.00;99611.94;2081634;28;20595;-76
2021/08/25 00:36:50;;;;;;;23.00;20.67;;;;;;;8.73;100.00;99609.81;2081975;28;20224;-76
2021/08/25 00:37:52;;;;;;;25.70;20.77;;;;;;;8.69;100.00;99612.22;2080838;28;20310;-76
2021/08/25 00:38:52;;;;;;;24.35;21.67;;;;;;;8.71;100.00;99611.94;2080730;28;20684;-76
2021/08/25 00:39:54;;;;;;;25.77;21.03;;;;;;;8.68;100.00;99607.16;2081526;28;20569;-77
2021/08/25 00:40:56;;;;;;;29.50;21.38;;;;;;;8.68;100.00;99612.47;2081900;28;20223;-77
2021/08/25 00:41:58;;;;;;;26.13;20.80;;;;;;;8.66;100.00;99607.44;2082016;28;20280;-76
2021/08/25 00:43:04;;;;;;;25.20;19.88;;;;;;;8.68;100.00;99604.50;2081677;28;20235;-76
2021/08/25 00:44:06;;;;;;;23.05;20.45;;;;;;;8.66;100.00;99599.44;2081890;28;20223;-76
2021/08/25 00:45:08;;;;;;;23.92;21.30;;;;;;;8.67;100.00;99605.56;2080636;28;20234;-76
2021/08/25 00:46:11;;;;;;;25.13;21.02;;;;;;;8.65;100.00;99600.50;2080749;28;20686;-76
2021/08/25 00:47:13;;;;;;;26.63;21.50;;;;;;;8.62;100.00;99600.28;2081044;28;20275;-76
2021/08/25 00:48:14;;;;;;;23.25;20.95;;;;;;;8.61;100.00;99593.34;2081433;28;20227;-76
2021/08/25 00:49:17;;;;;;;23.02;20.65;;;;;;;8.59;100.00;99590.16;2081506;28;20242;-76
2021/08/25 00:50:19;;;;;;;22.55;20.25;;;;;;;8.58;100.00;99600.00;2081284;28;20303;-77
2021/08/25 00:51:22;;;;;;;25.08;20.30;;;;;;;8.57;100.00;99597.59;2080505;28;20738;-76
2021/08/25 00:52:23;;;;;;;22.80;20.00;;;;;;;8.55;100.00;99589.09;2080357;28;20313;-76
2021/08/25 00:53:24;;;;;;;23.25;20.92;;;;;;;8.50;100.00;99595.22;2080563;28;20222;-75
2021/08/25 00:54:26;;;;;;;22.70;20.47;;;;;;;8.50;100.00;99589.91;2080520;28;20575;-75
2021/08/25 00:55:27;;;;;;;22.25;19.88;;;;;;;8.49;100.00;99599.75;2080714;28;20244;-76
2021/08/25 00:56:30;;;;;;;22.73;20.53;;;;;;;8.45;100.00;99601.34;2080782;28;20681;-76
2021/08/25 00:57:31;;;;;;;22.75;20.35;;;;;;;8.44;100.00;99597.09;2079652;28;20666;-75
2021/08/25 00:58:33;;;;;;;24.00;21.40;;;;;;;8.43;100.00;99594.72;2079836;28;20798;-75
2021/08/25 00:59:33;;;;;;;26.30;20.95;;;;;;;8.41;100.00;99591.50;2080332;28;20749;-75
2021/08/25 01:00:38;;;;;;;25.03;20.67;;;;;;;8.40;100.00;99592.59;2080256;28;20642;-76
2021/08/25 01:01:49;;;;;;;22.75;20.40;;;;;;;8.37;100.00;99588.59;2080174;28;20636;-76
2021/08/25 01:02:55;;;;;;;25.30;20.83;;;;;;;8.33;100.00;99597.34;2081183;28;20261;-76
2021/08/25 01:03:57;;;;;;;23.80;21.35;;;;;;;8.32;100.00;99593.88;2079982;28;20227;-76
2021/08/25 01:05:00;;;;;;;22.67;20.25;;;;;;;8.32;100.00;99590.44;2072330;28;20238;-76
2021/08/25 01:06:01;;;;;;;22.98;20.05;;;;;;;8.28;100.00;99584.88;2080426;28;20238;-76
2021/08/25 01:07:04;;;;;;;23.35;20.58;;;;;;;8.25;100.00;99589.91;2081043;28;20735;-76
2021/08/25 01:08:04;;;;;;;22.70;20.23;;;;;;;8.23;100.00;99590.97;2080824;28;20227;-76
2021/08/25 01:09:07;;;;;;;22.87;19.87;;;;;;;8.22;100.00;99588.59;2081086;28;20226;-76
2021/08/25 01:10:23;;;;;;;22.17;20.08;;;;;;;8.19;100.00;99584.59;2079832;28;20223;-76
2021/08/25 01:11:25;;;;;;;23.10;20.67;;;;;;;8.19;100.00;99591.78;2078163;28;20223;-76
2021/08/25 01:12:27;;;;;;;23.65;21.02;;;;;;;8.18;100.00;99584.88;2080182;28;20227;-76
2021/08/25 01:13:29;;;;;;;22.40;20.20;;;;;;;8.19;100.00;99586.47;2080638;28;20246;-76
2021/08/25 01:14:29;;;;;;;23.90;21.40;;;;;;;8.17;100.00;99585.94;2081391;28;20219;-76
2021/08/25 01:15:32;;;;;;;24.30;21.90;;;;;;;8.16;100.00;99584.31;2081928;28;20215;-76
2021/08/25 01:16:35;;;;;;;26.00;21.80;;;;;;;8.12;100.00;99580.63;2081173;28;20632;-75
2021/08/25 01:17:37;;;;;;;22.65;20.35;;;;;;;8.10;100.00;99574.78;2080895;28;20250;-75
2021/08/25 01:18:39;;;;;;;24.30;21.73;;;;;;;8.10;100.00;99585.41;2080678;28;20641;-76
2021/08/25 01:19:46;;;;;;;23.25;20.90;;;;;;;8.11;100.00;99577.16;2080208;28;20314;-75
2021/08/25 01:20:48;;;;;;;24.20;20.13;;;;;;;8.08;100.00;99571.56;2072633;28;20220;-76
2021/08/25 01:21:49;;;;;;;23.00;20.80;;;;;;;8.07;100.00;99575.28;2080341;28;20306;-76
2021/08/25 01:22:51;;;;;;;24.30;21.47;;;;;;;8.05;100.00;99569.47;2080287;28;20222;-75
2021/08/25 01:23:52;;;;;;;23.92;21.42;;;;;;;8.01;100.00;99566.56;2080010;28;20617;-76
2021/08/25 01:24:54;;;;;;;23.70;20.58;;;;;;;8.01;100.00;99569.22;2080345;28;20315;-76
2021/08/25 01:25:57;;;;;;;24.40;21.88;;;;;;;7.99;100.00;99573.97;2081088;28;20314;-76
2021/08/25 01:27:01;;;;;;;24.17;21.67;;;;;;;7.97;100.00;99565.47;2080236;28;20318;-76
2021/08/25 01:28:05;;;;;;;23.88;21.42;;;;;;;7.97;100.00;99565.47;2080566;28;20310;-76
2021/08/25 01:29:18;;;;;;;23.42;20.92;;;;;;;7.97;100.00;99570.00;2081897;28;20235;-76
2021/08/25 01:30:19;;;;;;;26.65;21.70;;;;;;;7.94;100.00;99566.81;2080705;28;20211;-76
2021/08/25 01:31:22;;;;;;;25.17;21.85;;;;;;;7.93;100.00;99577.72;2081642;28;20697;-76
2021/08/25 01:32:24;;;;;;;24.52;22.05;;;;;;;7.92;100.00;99568.16;2081913;28;20625;-76
2021/08/25 01:33:27;;;;;;;23.92;21.58;;;;;;;7.90;100.00;99579.00;2082580;28;20302;-76
2021/08/25 01:34:28;;;;;;;24.10;21.70;;;;;;;7.90;100.00;99571.03;2082045;28;20310;-77
2021/08/25 01:35:33;;;;;;;23.88;21.48;;;;;;;7.87;100.00;99570.78;2082297;28;20666;-76
2021/08/25 01:36:35;;;;;;;24.48;20.88;;;;;;;7.84;100.00;99564.16;2083335;28;20246;-76
2021/08/25 01:37:36;;;;;;;25.15;21.30;;;;;;;7.85;100.00;99573.72;2081960;28;20686;-76
2021/08/25 01:38:45;;;;;;;23.33;21.13;;;;;;;7.83;100.00;99577.72;2073811;28;20647;-77
2021/08/25 01:39:46;;;;;;;24.15;21.85;;;;;;;7.79;100.00;99572.09;2082402;28;20223;-76
2021/08/25 01:40:47;;;;;;;22.50;20.20;;;;;;;7.79;100.00;99574.75;2082449;28;20287;-76
2021/08/25 01:41:50;;;;;;;22.97;20.73;;;;;;;7.79;100.00;99571.31;2083701;28;20605;-76
2021/08/25 01:42:51;;;;;;;24.23;21.00;;;;;;;7.78;100.00;99570.50;2083928;28;20310;-76
2021/08/25 01:43:53;;;;;;;23.27;21.17;;;;;;;7.77;100.00;99571.59;2084136;28;20243;-76
2021/08/25 01:44:55;;;;;;;27.40;21.00;;;;;;;7.75;100.00;99565.75;2083932;28;20239;-76
2021/08/25 01:45:56;;;;;;;22.17;20.10;;;;;;;7.72;100.00;99571.56;2082552;28;20226;-77
2021/08/25 01:46:57;;;;;;;23.52;21.08;;;;;;;7.72;100.00;99574.22;2083305;28;20234;-75
2021/08/25 01:47:58;;;;;;;23.87;20.60;;;;;;;7.71;100.00;99569.97;2082792;28;20258;-76
2021/08/25 01:48:59;;;;;;;22.63;20.42;;;;;;;7.71;100.00;99571.84;2083761;28;20224;-76
2021/08/25 01:50:01;;;;;;;22.70;20.53;;;;;;;7.69;100.00;99568.66;2084942;28;20228;-76
2021/08/25 01:51:02;;;;;;;23.55;21.15;;;;;;;7.69;100.00;99566.78;2085599;28;20238;-76
2021/08/25 01:52:04;;;;;;;26.77;21.38;;;;;;;7.70;100.00;99567.59;2086137;28;20258;-76
2021/08/25 01:53:05;;;;;;;25.42;20.05;;;;;;;7.74;100.00;99564.16;2085142;28;20245;-76
2021/08/25 01:54:07;;;;;;;24.73;20.93;;;;;;;7.75;100.00;99563.09;2085413;28;20223;-77
2021/08/25 01:55:08;;;;;;;22.73;20.33;;;;;;;7.76;100.00;99571.84;2084812;28;20235;-77
2021/08/25 01:56:10;;;;;;;22.73;19.93;;;;;;;7.77;100.00;99568.13;2085205;28;20239;-77
2021/08/25 01:57:10;;;;;;;21.67;19.58;;;;;;;7.83;100.00;99564.44;2084402;28;20732;-76
2021/08/25 01:58:12;;;;;;;22.40;20.03;;;;;;;7.80;100.00;99568.38;2083485;28;21275;-76
2021/08/25 01:59:12;;;;;;;23.02;20.83;;;;;;;7.84;100.00;99553.53;2084675;28;20227;-76
2021/08/25 02:00:16;;;;;;;22.27;19.67;;;;;;;7.82;100.00;99558.31;2085617;28;20227;-77
2021/08/25 02:01:17;;;;;;;21.45;19.38;;;;;;;7.81;100.00;99561.22;2085399;28;20226;-77
2021/08/25 02:02:19;;;;;;;22.33;19.87;;;;;;;7.80;100.00;99562.28;2084484;28;20223;-76
2021/08/25 02:03:19;;;;;;;21.98;19.75;;;;;;;7.78;100.00;99559.91;2083714;28;20307;-76
2021/08/25 02:04:21;;;;;;;22.17;19.97;;;;;;;7.77;100.00;99563.63;2074773;28;20691;-76
2021/08/25 02:05:21;;;;;;;22.88;20.45;;;;;;;7.76;100.00;99554.06;2082641;28;20231;-77
2021/08/25 02:06:24;;;;;;;23.33;20.92;;;;;;;7.76;100.00;99551.41;2082689;28;20231;-76
2021/08/25 02:07:25;;;;;;;24.42;20.30;;;;;;;7.81;100.00;99556.69;2082013;28;20302;-76
2021/08/25 02:08:26;;;;;;;22.43;20.27;;;;;;;7.82;100.00;99553.00;2080696;28;20231;-76
2021/08/25 02:09:27;;;;;;;21.90;19.77;;;;;;;7.83;100.00;99551.94;2080647;28;20247;-76
2021/08/25 02:10:29;;;;;;;22.33;20.03;;;;;;;7.82;100.00;99558.31;2080610;28;20226;-76
2021/08/25 02:11:29;;;;;;;22.13;20.10;;;;;;;7.80;100.00;99554.31;2080746;28;20828;-75
2021/08/25 02:12:31;;;;;;;21.27;19.37;;;;;;;7.81;100.00;99558.56;2081087;28;20235;-76
2021/08/25 02:13:32;;;;;;;22.42;20.23;;;;;;;7.81;100.00;99562.00;2080532;28;20242;-75
2021/08/25 02:14:34;;;;;;;21.83;19.50;;;;;;;7.80;100.00;99556.97;2080545;28;20701;-75
2021/08/25 02:15:36;;;;;;;20.60;18.60;;;;;;;7.80;100.00;99549.78;2080441;28;20230;-76
2021/08/25 02:16:38;;;;;;;22.85;19.10;;;;;;;7.79;100.00;99558.03;2080429;28;20223;-75
2021/08/25 02:17:40;;;;;;;25.20;18.92;;;;;;;7.80;100.00;99554.31;2081025;28;20230;-78
2021/08/25 02:18:42;;;;;;;21.33;18.85;;;;;;;7.83;100.00;99561.78;2080458;28;20243;-75
2021/08/25 02:19:43;;;;;;;23.80;19.67;;;;;;;7.81;100.00;99556.69;2080634;28;20242;-75
2021/08/25 02:20:44;;;;;;;22.67;19.53;;;;;;;7.82;100.00;99558.31;2081332;28;20219;-78
2021/08/25 02:21:45;;;;;;;23.60;20.02;;;;;;;7.84;100.00;99550.88;2081371;28;20254;-76
2021/08/25 02:22:46;;;;;;;21.50;19.30;;;;;;;7.84;100.00;99560.69;2078266;28;20223;-78
2021/08/25 02:23:47;;;;;;;25.35;20.65;;;;;;;7.83;100.00;99551.94;2080614;28;20318;-77
2021/08/25 02:24:49;;;;;;;21.97;19.80;;;;;;;7.86;100.00;99548.75;2080722;28;20219;-78
2021/08/25 02:25:49;;;;;;;27.33;20.80;;;;;;;7.88;100.00;99551.13;2081238;28;20215;-77
2021/08/25 02:26:51;;;;;;;23.17;19.60;;;;;;;7.90;100.00;99544.47;2082039;28;20235;-77
2021/08/25 02:27:52;;;;;;;23.13;20.65;;;;;;;7.92;100.00;99545.03;2080777;28;20219;-76
2021/08/25 02:28:54;;;;;;;23.50;20.05;;;;;;;7.96;100.00;99541.81;2080633;28;20227;-76
2021/08/25 02:29:55;;;;;;;23.40;20.15;;;;;;;7.96;100.00;99542.63;2080001;28;20274;-77
2021/08/25 02:30:59;;;;;;;21.03;18.83;;;;;;;7.98;100.00;99542.34;2079861;28;20227;-77
2021/08/25 02:31:59;;;;;;;21.30;19.20;;;;;;;8.00;100.00;99543.69;2079934;28;20261;-76
2021/08/25 02:33:01;;;;;;;22.73;19.43;;;;;;;8.01;100.00;99539.19;2080023;28;20219;-77
2021/08/25 02:34:02;;;;;;;21.13;18.95;;;;;;;8.04;100.00;99542.09;2080715;28;20230;-76
2021/08/25 02:35:04;;;;;;;21.93;19.63;;;;;;;8.05;100.00;99542.88;2081110;28;20229;-76
2021/08/25 02:36:05;;;;;;;20.73;18.70;;;;;;;8.05;100.00;99549.00;2080628;28;20234;-76
2021/08/25 02:37:06;;;;;;;24.50;19.47;;;;;;;8.04;100.00;99543.94;2080730;28;20229;-77
2021/08/25 02:38:08;;;;;;;20.60;18.60;;;;;;;8.03;100.00;99540.50;2079518;28;20243;-77
2021/08/25 02:39:09;;;;;;;21.60;19.40;;;;;;;8.06;100.00;99539.16;2080135;28;20681;-76
2021/08/25 02:40:12;;;;;;;23.57;19.10;;;;;;;8.07;100.00;99543.41;2080457;28;20231;-77
2021/08/25 02:41:14;;;;;;;27.05;19.35;;;;;;;8.08;100.00;99545.00;2080474;28;20223;-76
2021/08/25 02:42:16;;;;;;;23.42;20.33;;;;;;;8.07;100.00;99538.88;2079631;28;20306;-77
2021/08/25 02:43:16;;;;;;;21.02;18.77;;;;;;;8.09;100.00;99541.31;2079357;28;20243;-77
2021/08/25 02:44:18;;;;;;;22.37;19.57;;;;;;;8.08;100.00;99537.03;2079945;28;20215;-77
2021/08/25 02:45:19;;;;;;;21.50;19.33;;;;;;;8.07;100.00;99530.91;2080780;28;20216;-77
2021/08/25 02:46:22;;;;;;;20.40;18.50;;;;;;;8.09;100.00;99530.66;2080827;28;20227;-77
2021/08/25 02:47:22;;;;;;;20.83;18.73;;;;;;;8.07;100.00;99528.25;2079379;28;20254;-77
2021/08/25 02:48:24;;;;;;;23.60;19.83;;;;;;;8.10;100.00;99542.91;2079766;28;20701;-77
2021/08/25 02:49:24;;;;;;;22.02;18.73;;;;;;;8.09;100.00;99531.47;2079860;28;20348;-77
2021/08/25 02:50:26;;;;;;;20.83;18.77;;;;;;;8.10;100.00;99534.91;2071830;28;20232;-77
2021/08/25 02:51:27;;;;;;;25.42;19.83;;;;;;;8.10;100.00;99538.38;2080059;28;20553;-75
2021/08/25 02:52:29;;;;;;;22.03;19.67;;;;;;;8.10;100.00;99537.56;2080836;28;20246;-77
2021/08/25 02:53:30;;;;;;;22.23;18.92;;;;;;;8.12;100.00;99536.25;2080233;28;20244;-78
2021/08/25 02:54:31;;;;;;;23.63;19.70;;;;;;;8.10;100.00;99537.56;2071710;28;20287;-77
2021/08/25 02:55:33;;;;;;;21.77;19.50;;;;;;;8.12;100.00;99541.56;2080477;28;20223;-78
2021/08/25 02:56:33;;;;;;;21.35;19.27;;;;;;;8.10;100.00;99540.22;2079684;28;20234;-77
2021/08/25 02:57:35;;;;;;;26.53;19.90;;;;;;;8.07;100.00;99524.81;2080111;28;20219;-77
2021/08/25 02:58:35;;;;;;;20.23;18.33;;;;;;;8.09;100.00;99526.16;2080266;28;20239;-77
2021/08/25 02:59:37;;;;;;;21.30;19.20;;;;;;;8.09;100.00;99526.16;2071632;28;20219;-78
2021/08/25 03:00:38;;;;;;;21.40;19.20;;;;;;;8.08;100.00;99519.25;2079871;28;20230;-76
2021/08/25 03:01:40;;;;;;;21.27;19.03;;;;;;;8.07;100.00;99522.94;2079708;28;20315;-77
2021/08/25 03:02:42;;;;;;;21.30;18.95;;;;;;;8.05;100.00;99518.97;2071647;28;20721;-77
2021/08/25 03:03:43;;;;;;;20.77;18.77;;;;;;;8.05;100.00;99524.28;2080050;28;20562;-77
2021/08/25 03:04:44;;;;;;;20.57;18.57;;;;;;;8.04;100.00;99526.16;2080630;28;20228;-77
2021/08/25 03:05:45;;;;;;;20.88;18.67;;;;;;;8.03;100.00;99524.56;2079816;28;20231;-77
2021/08/25 03:06:47;;;;;;;20.13;18.17;;;;;;;8.04;100.00;99523.50;2080272;28;20223;-78
2021/08/25 03:07:47;;;;;;;20.95;18.85;;;;;;;8.04;100.00;99528.81;2080797;28;20701;-77
2021/08/25 03:08:49;;;;;;;21.37;19.37;;;;;;;8.02;100.00;99527.47;2080734;28;20574;-77
2021/08/25 03:09:49;;;;;;;21.75;19.70;;;;;;;8.03;100.00;99524.56;2079750;28;20239;-77
2021/08/25 03:10:51;;;;;;;25.93;19.33;;;;;;;8.01;100.00;99524.03;2071231;28;20220;-77
2021/08/25 03:11:52;;;;;;;20.70;18.65;;;;;;;8.01;100.00;99523.25;2071437;28;20306;-77
2021/08/25 03:12:53;;;;;;;21.60;19.23;;;;;;;8.03;100.00;99523.75;2079656;28;20230;-77
2021/08/25 03:13:54;;;;;;;21.45;19.25;;;;;;;8.01;100.00;99518.72;2080933;28;20231;-77
2021/08/25 03:14:56;;;;;;;21.40;19.20;;;;;;;8.01;100.00;99525.91;2079636;28;20223;-77
2021/08/25 03:15:56;;;;;;;20.75;18.77;;;;;;;8.01;100.00;99526.69;2079776;28;20314;-77
2021/08/25 03:16:59;;;;;;;22.23;19.83;;;;;;;8.00;100.00;99526.97;2080523;28;20227;-77
2021/08/25 03:18:00;;;;;;;22.85;19.52;;;;;;;8.00;100.00;99526.97;2080093;28;20633;-77
2021/08/25 03:19:02;;;;;;;21.63;19.53;;;;;;;7.98;100.00;99527.22;2080148;28;20231;-77
2021/08/25 03:20:03;;;;;;;21.70;19.70;;;;;;;8.03;100.00;99531.72;2080163;28;20302;-78
2021/08/25 03:21:05;;;;;;;22.08;19.98;;;;;;;7.99;100.00;99533.31;2080813;28;20235;-77
2021/08/25 03:22:06;;;;;;;21.92;19.73;;;;;;;8.00;100.00;99530.41;2081148;28;20227;-77
2021/08/25 03:23:07;;;;;;;20.47;18.53;;;;;;;7.98;100.00;99529.88;2072532;28;20307;-77
2021/08/25 03:24:08;;;;;;;21.55;19.30;;;;;;;7.98;100.00;99529.88;2081012;28;20219;-77
2021/08/25 03:25:10;;;;;;;21.37;19.17;;;;;;;7.96;100.00;99528.53;2082020;28;20686;-77
2021/08/25 03:26:12;;;;;;;22.30;20.10;;;;;;;7.96;100.00;99531.19;2081753;28;20228;-77
2021/08/25 03:27:13;;;;;;;21.02;18.90;;;;;;;7.97;100.00;99532.78;2081855;28;20227;-77
2021/08/25 03:28:14;;;;;;;21.33;19.33;;;;;;;7.96;100.00;99532.00;2080917;28;20678;-77
2021/08/25 03:29:15;;;;;;;21.23;19.17;;;;;;;7.96;100.00;99533.84;2081039;28;20560;-78
2021/08/25 03:30:16;;;;;;;23.65;19.40;;;;;;;7.96;100.00;99532.00;2081996;28;20231;-78
2021/08/25 03:31:18;;;;;;;22.17;19.77;;;;;;;7.96;100.00;99533.84;2081875;28;20223;-77
2021/08/25 03:32:20;;;;;;;21.13;19.13;;;;;;;7.95;100.00;99530.41;2081848;28;20220;-77
2021/08/25 03:33:21;;;;;;;22.13;19.98;;;;;;;7.98;100.00;99534.38;2081944;28;20549;-77
2021/08/25 03:34:22;;;;;;;22.13;19.75;;;;;;;7.97;100.00;99532.78;2081294;28;20226;-77
2021/08/25 03:35:23;;;;;;;21.50;19.33;;;;;;;7.99;100.00;99538.63;2081043;28;20226;-77
2021/08/25 03:36:25;;;;;;;21.10;18.95;;;;;;;7.99;100.00;99536.75;2072752;28;20244;-77
2021/08/25 03:37:26;;;;;;;21.75;19.45;;;;;;;8.00;100.00;99537.59;2073022;28;20228;-77
2021/08/25 03:38:27;;;;;;;21.47;19.27;;;;;;;7.98;100.00;99537.03;2081072;28;20686;-77
2021/08/25 03:39:28;;;;;;;25.27;18.92;;;;;;;8.01;100.00;99533.88;2081661;28;20682;-77
2021/08/25 03:40:29;;;;;;;23.87;19.10;;;;;;;8.01;100.00;99528.56;2081948;28;20582;-77
2021/08/25 03:41:30;;;;;;;20.67;18.60;;;;;;;8.01;100.00;99529.34;2081787;28;20273;-76
2021/08/25 03:42:32;;;;;;;21.17;18.97;;;;;;;8.01;100.00;99533.88;2081620;28;20227;-76
2021/08/25 03:43:32;;;;;;;21.10;18.92;;;;;;;8.04;100.00;99538.63;2081839;28;20543;-77
2021/08/25 03:44:34;;;;;;;21.27;19.20;;;;;;;8.04;100.00;99533.31;2081750;28;20230;-77
2021/08/25 03:45:34;;;;;;;21.38;19.30;;;;;;;8.02;100.00;99536.25;2081875;28;20232;-77
2021/08/25 03:46:37;;;;;;;21.00;18.77;;;;;;;8.04;100.00;99525.34;2081825;28;20230;-77
2021/08/25 03:47:38;;;;;;;21.35;19.05;;;;;;;8.06;100.00;99531.19;2081195;28;20609;-77
2021/08/25 03:48:40;;;;;;;21.35;19.35;;;;;;;8.05;100.00;99529.59;2080571;28;20577;-77
2021/08/25 03:49:42;;;;;;;21.75;19.55;;;;;;;8.05;100.00;99535.72;2072741;28;20264;-77
2021/08/25 03:50:44;;;;;;;21.80;19.70;;;;;;;8.05;100.00;99526.94;2072894;28;20653;-77
2021/08/25 03:51:44;;;;;;;22.67;20.27;;;;;;;8.09;100.00;99530.66;2081022;28;20610;-77
2021/08/25 03:52:46;;;;;;;22.77;20.50;;;;;;;8.10;100.00;99532.25;2080724;28;20230;-77
2021/08/25 03:53:46;;;;;;;22.52;20.15;;;;;;;8.11;100.00;99528.53;2080389;28;20230;-77
2021/08/25 03:54:48;;;;;;;23.60;20.33;;;;;;;8.13;100.00;99527.19;2080957;28;20319;-77
2021/08/25 03:55:49;;;;;;;22.35;19.75;;;;;;;8.14;100.00;99522.69;2081754;28;20258;-76
2021/08/25 03:56:50;;;;;;;22.27;20.00;;;;;;;8.15;100.00;99519.75;2081634;28;20227;-77
2021/08/25 03:57:51;;;;;;;21.90;19.67;;;;;;;8.20;100.00;99526.94;2081496;28;20792;-77
2021/08/25 03:58:52;;;;;;;23.27;20.57;;;;;;;8.22;100.00;99524.78;2080578;28;20635;-77
2021/08/25 03:59:53;;;;;;;22.48;20.00;;;;;;;8.26;100.00;99525.06;2071972;28;20227;-77
2021/08/25 04:00:55;;;;;;;21.93;19.60;;;;;;;8.25;100.00;99532.22;2081171;28;20299;-77
2021/08/25 04:01:55;;;;;;;51.42;21.08;;;;;;;8.24;100.00;99525.31;2081637;28;20230;-77
2021/08/25 04:02:58;;;;;;;22.73;20.17;;;;;;;8.28;100.00;99529.03;2081783;28;20228;-77
2021/08/25 04:04:05;;;;;;;23.70;20.52;;;;;;;8.29;100.00;99530.63;2082209;28;20247;-77
2021/08/25 04:05:08;;;;;;;23.15;20.67;;;;;;;8.30;100.00;99526.91;2082016;28;20219;-77
2021/08/25 04:06:08;;;;;;;24.23;20.35;;;;;;;8.32;100.00;99535.41;2080728;28;20685;-77
2021/08/25 04:07:10;;;;;;;24.07;21.23;;;;;;;8.34;100.00;99530.63;2081555;28;20646;-77
2021/08/25 04:08:11;;;;;;;25.00;22.27;;;;;;;8.35;100.00;99532.25;2081734;28;20247;-77
2021/08/25 04:09:12;;;;;;;24.83;22.23;;;;;;;8.37;100.00;99538.09;2082225;28;20243;-77
2021/08/25 04:10:13;;;;;;;28.35;21.77;;;;;;;8.40;100.00;99537.53;2081987;28;20630;-77
2021/08/25 04:11:18;;;;;;;24.07;21.47;;;;;;;8.42;100.00;99526.63;2081914;28;20219;-77
2021/08/25 04:12:19;;;;;;;24.40;21.90;;;;;;;8.46;100.00;99528.50;2081563;28;20306;-77
2021/08/25 04:13:20;;;;;;;22.17;20.13;;;;;;;8.46;100.00;99525.84;2080309;28;20224;-77
2021/08/25 04:14:21;;;;;;;23.23;20.85;;;;;;;8.48;100.00;99528.22;2081677;28;20599;-77
2021/08/25 04:15:23;;;;;;;22.97;20.57;;;;;;;8.52;100.00;99525.84;2080877;28;20231;-77
2021/08/25 04:16:23;;;;;;;22.25;20.08;;;;;;;8.52;100.00;99523.19;2072555;28;20232;-77
2021/08/25 04:17:25;;;;;;;22.73;20.43;;;;;;;8.49;100.00;99519.97;2072994;28;20278;-77
2021/08/25 04:18:27;;;;;;;23.45;21.05;;;;;;;8.54;100.00;99526.34;2081287;28;20251;-77
2021/08/25 04:19:28;;;;;;;23.42;21.13;;;;;;;8.53;100.00;99524.75;2081771;28;20819;-77
2021/08/25 04:20:29;;;;;;;22.55;20.27;;;;;;;8.54;100.00;99521.81;2081622;28;20314;-77
2021/08/25 04:21:31;;;;;;;24.97;20.37;;;;;;;8.59;100.00;99528.97;2081638;28;20227;-77
2021/08/25 04:22:31;;;;;;;23.00;20.60;;;;;;;8.60;100.00;99520.75;2081835;28;20247;-77
2021/08/25 04:23:33;;;;;;;24.50;21.10;;;;;;;8.60;100.00;99525.25;2080824;28;20230;-77
2021/08/25 04:24:34;;;;;;;23.83;20.98;;;;;;;8.60;100.00;99520.75;2080835;28;20761;-77
2021/08/25 04:25:35;;;;;;;22.80;20.50;;;;;;;8.62;100.00;99520.47;2081100;28;20602;-77
2021/08/25 04:26:36;;;;;;;24.10;21.63;;;;;;;8.63;100.00;99519.41;2080971;28;20310;-77
2021/08/25 04:27:37;;;;;;;24.73;22.10;;;;;;;8.65;100.00;99519.94;2081804;28;20223;-77
2021/08/25 04:28:38;;;;;;;24.13;21.63;;;;;;;8.72;100.00;99520.44;2080428;28;20689;-77
2021/08/25 04:29:40;;;;;;;24.27;22.00;;;;;;;8.72;100.00;99523.88;2080628;28;20565;-77
2021/08/25 04:30:40;;;;;;;22.95;20.65;;;;;;;8.73;100.00;99514.03;2081749;28;20249;-77
2021/08/25 04:31:42;;;;;;;23.67;21.47;;;;;;;8.77;100.00;99515.06;2081294;28;21705;-77
2021/08/25 04:32:42;;;;;;;23.48;20.73;;;;;;;8.76;100.00;99518.81;2081062;28;20426;-77
2021/08/25 04:33:45;;;;;;;25.23;21.27;;;;;;;8.78;100.00;99514.03;2080964;28;20242;-78
2021/08/25 04:34:46;;;;;;;23.65;21.25;;;;;;;8.74;100.00;99518.28;2081772;28;20692;-76
2021/08/25 04:35:47;;;;;;;23.67;20.90;;;;;;;8.75;100.00;99519.88;2081206;28;20586;-77
2021/08/25 04:36:48;;;;;;;25.10;21.02;;;;;;;8.76;100.00;99516.16;2080760;28;20239;-77
2021/08/25 04:37:50;;;;;;;24.40;21.13;;;;;;;8.78;100.00;99519.34;2081313;28;20218;-77
2021/08/25 04:38:50;;;;;;;24.60;21.42;;;;;;;8.79;100.00;99507.63;2080666;28;20215;-77
2021/08/25 04:39:52;;;;;;;23.87;21.37;;;;;;;8.80;100.00;99508.44;2072379;28;20224;-76
2021/08/25 04:40:53;;;;;;;23.52;21.13;;;;;;;8.80;100.00;99503.91;2072238;28;20759;-76
2021/08/25 04:41:55;;;;;;;23.98;21.55;;;;;;;8.82;100.00;99504.44;2072420;28;20566;-77
2021/08/25 04:42:55;;;;;;;23.67;21.15;;;;;;;8.84;100.00;99504.16;2081062;28;20249;-76
2021/08/25 04:43:57;;;;;;;25.37;21.30;;;;;;;8.88;100.00;99502.56;2081044;28;20227;-77